KGTU

Details ICAO KGTU (GTU)
Name Georgetown Muni
Region United States
Timezone America/Chicago (UTC-6.0)
Plans Departing 23
Arriving 10
Stats Elevation 790 ft / 241 m (AMSL)
Location 30.678783° -97.679490°
Runways 2
Magnetic Variation 3.817° E
Sunrise 2017-12-12 13:20:19 UTC / 2017-12-12 07:20:19 Local
Sunset 2017-12-12 23:31:41 UTC / 2017-12-12 17:31:41 Local
Advertisement - Login to hide

Runways

ID Width Length Bearing (true) Bearing (mag) Surface Threshold Offset Overrun Length
11 75 ft / 23 m 4,098 ft / 1,249 m 120.69° 116.87° Asphalt 0 ft / 0 m 0 ft / 0 m
18 100 ft / 30 m 5,016 ft / 1,529 m 183.55° 179.73° Asphalt 0 ft / 0 m 0 ft / 0 m
29 75 ft / 23 m 4,098 ft / 1,249 m 300.69° 296.87° Asphalt 0 ft / 0 m 0 ft / 0 m
36 100 ft / 30 m 5,016 ft / 1,529 m 3.55° 359.73° Asphalt 0 ft / 0 m 0 ft / 0 m

Map

Weather


0- 5 10 15 20 25 30 35+ Temperature / ° C

Clouds and Precipitation
Forecast for 2017-12-12 12:00 UTC. Updated an hour ago

Ground ~20,000 ft ~40,000 ft Winds

METAR

KGTU 121156Z AUTO 34007KT 10SM CLR 07/M04 A3035 RMK AO2 SLP278 T00721044 10128 20072 52024

TAF

Not found

Frequencies

Recorded 135.42 MHz AWOS 3
Clearance 121.10 MHz CLNC DEL
Unicom 123.00 MHz CTAF/UNICOM
Approach 119.00 MHz AUSTIN APP/DEP
Warning: Do not use this data for real-world aviation or navigation. No guarantee of current accuracy is given.